createdAt,value
2023-04-01T00:01:45.731Z,11.90
2023-04-01T00:04:15.323Z,11.90
2023-04-01T00:06:44.932Z,11.90
2023-04-01T00:09:14.569Z,11.90
2023-04-01T00:11:44.395Z,11.90
2023-04-01T00:14:16.546Z,11.80
2023-04-01T00:16:46.140Z,11.80
2023-04-01T00:19:16.253Z,11.90
2023-04-01T00:21:45.861Z,11.80
2023-04-01T00:24:15.450Z,11.80
2023-04-01T00:26:45.720Z,11.80
2023-04-01T00:29:17.900Z,11.70
2023-04-01T00:31:47.581Z,11.80
2023-04-01T00:34:17.192Z,11.80
2023-04-01T00:36:46.780Z,11.80
2023-04-01T00:39:16.458Z,11.80
2023-04-01T00:41:46.155Z,11.70
2023-04-01T00:44:21.215Z,11.80
2023-04-01T00:46:50.830Z,11.70
2023-04-01T00:49:21.833Z,11.70
2023-04-01T00:51:53.866Z,11.70
2023-04-01T00:54:24.436Z,11.70
2023-04-01T00:56:57.362Z,11.70
2023-04-01T00:59:31.499Z,11.70
2023-04-01T01:02:01.346Z,11.60
2023-04-01T01:04:32.632Z,11.70
2023-04-01T01:07:07.151Z,11.60
2023-04-01T01:09:44.978Z,11.60
2023-04-01T01:12:16.760Z,11.60
2023-04-01T01:14:56.797Z,11.60
2023-04-01T01:17:32.968Z,11.60
2023-04-01T01:20:25.843Z,11.60
2023-04-01T01:23:03.300Z,11.60
2023-04-01T01:25:36.078Z,11.60
2023-04-01T01:28:26.857Z,11.60
2023-04-01T01:31:01.483Z,11.60
2023-04-01T01:33:39.809Z,11.50
2023-04-01T01:36:14.113Z,11.50
2023-04-01T01:38:43.976Z,11.50
2023-04-01T01:41:14.651Z,11.50
2023-04-01T01:43:45.307Z,11.50
2023-04-01T01:46:15.983Z,11.50
2023-04-01T01:48:46.728Z,11.50
2023-04-01T01:51:19.367Z,11.50
2023-04-01T01:53:48.990Z,11.50
2023-04-01T01:56:20.112Z,11.60
2023-04-01T01:58:51.390Z,11.60
2023-04-01T02:01:22.769Z,11.50
2023-04-01T02:03:53.605Z,11.50
2023-04-01T02:06:27.030Z,11.40
2023-04-01T02:08:59.289Z,11.40
2023-04-01T02:11:31.232Z,11.40
2023-04-01T02:14:05.255Z,11.40
2023-04-01T02:16:37.450Z,11.40
2023-04-01T02:19:09.338Z,11.40
2023-04-01T02:21:43.247Z,11.40
2023-04-01T02:24:16.130Z,11.40
2023-04-01T02:26:45.935Z,11.40
2023-04-01T02:29:16.149Z,11.40
2023-04-01T02:31:46.283Z,11.40
2023-04-01T02:34:15.944Z,11.40
2023-04-01T02:36:48.330Z,11.40
2023-04-01T02:39:17.965Z,11.40
2023-04-01T02:41:48.437Z,11.40
2023-04-01T02:44:18.839Z,11.40
2023-04-01T02:46:48.447Z,11.40
2023-04-01T02:49:18.014Z,11.40
2023-04-01T02:51:50.233Z,11.40
2023-04-01T02:54:19.764Z,11.40
2023-04-01T02:56:49.434Z,11.40
2023-04-01T02:59:19.153Z,11.40
2023-04-01T03:01:48.748Z,11.30
2023-04-01T03:04:18.371Z,11.30
2023-04-01T03:06:50.956Z,11.30
2023-04-01T03:09:20.508Z,11.30
2023-04-01T03:11:50.098Z,10.50
2023-04-01T03:14:19.691Z,11.20
2023-04-01T03:16:49.414Z,11.20
2023-04-01T03:19:19.085Z,11.20
2023-04-01T03:21:51.240Z,11.20
2023-04-01T03:24:20.827Z,11.10
2023-04-01T03:26:50.425Z,11.20
2023-04-01T03:29:19.972Z,11.20
2023-04-01T03:31:49.595Z,11.20
2023-04-01T03:34:19.131Z,11.20
2023-04-01T03:36:52.269Z,11.10
2023-04-01T03:39:21.936Z,11.10
2023-04-01T03:41:51.557Z,11.10
2023-04-01T03:44:21.144Z,11.10
2023-04-01T03:46:50.732Z,11.10
2023-04-01T03:49:20.368Z,11.10
2023-04-01T03:51:52.639Z,11.10
2023-04-01T03:54:22.909Z,11.10
2023-04-01T03:56:52.614Z,11.10
2023-04-01T03:59:22.254Z,11.10
2023-04-01T04:01:51.889Z,11.20
2023-04-01T04:04:21.491Z,11.10
2023-04-01T04:06:53.665Z,11.10
2023-04-01T04:09:23.198Z,11.10
2023-04-01T04:11:53.197Z,11.10
2023-04-01T04:14:22.804Z,11.10
2023-04-01T04:16:52.439Z,11.10
2023-04-01T04:19:22.128Z,11.10
2023-04-01T04:21:54.450Z,11.10
2023-04-01T04:24:24.025Z,11.10
2023-04-01T04:26:53.589Z,11.00
2023-04-01T04:29:23.932Z,11.00
2023-04-01T04:31:53.637Z,11.00
2023-04-01T04:34:23.483Z,11.00
2023-04-01T04:36:55.634Z,11.00
2023-04-01T04:39:25.217Z,11.00
2023-04-01T04:41:54.785Z,11.00
2023-04-01T04:44:24.386Z,11.00
2023-04-01T04:46:54.514Z,11.00
2023-04-01T04:49:25.140Z,11.00
2023-04-01T04:51:57.333Z,11.00
2023-04-01T04:54:26.891Z,11.00
2023-04-01T04:56:56.585Z,11.00
2023-04-01T04:59:26.317Z,11.00
2023-04-01T05:01:55.847Z,11.00
2023-04-01T05:04:25.405Z,11.00
2023-04-01T05:06:57.566Z,11.00
2023-04-01T05:09:27.662Z,11.00
2023-04-01T05:11:57.250Z,11.00
2023-04-01T05:14:26.856Z,11.00
2023-04-01T05:16:56.490Z,11.00
2023-04-01T05:19:26.171Z,11.00
2023-04-01T05:21:58.318Z,11.10
2023-04-01T05:24:27.874Z,11.00
2023-04-01T05:26:58.482Z,11.00
2023-04-01T05:29:28.593Z,10.90
2023-04-01T05:31:58.172Z,10.90
2023-04-01T05:34:27.842Z,11.00
2023-04-01T05:36:59.999Z,10.90
2023-04-01T05:39:29.594Z,10.90
2023-04-01T05:41:59.204Z,10.90
2023-04-01T05:44:28.771Z,11.00
2023-04-01T05:46:58.323Z,11.00
2023-04-01T05:49:28.958Z,10.90
2023-04-01T05:52:01.188Z,10.90
2023-04-01T05:54:30.862Z,10.90
2023-04-01T05:57:00.543Z,10.90
2023-04-01T05:59:32.283Z,10.90
2023-04-01T06:02:02.328Z,10.90
2023-04-01T06:04:36.619Z,10.90
2023-04-01T06:07:14.494Z,10.90
2023-04-01T06:09:44.593Z,10.90
2023-04-01T06:12:20.644Z,10.90
2023-04-01T06:14:55.371Z,10.90
2023-04-01T06:17:30.083Z,10.90
2023-04-01T06:20:02.104Z,11.00
2023-04-01T06:22:44.267Z,11.00
2023-04-01T06:25:19.166Z,11.00
2023-04-01T06:27:53.291Z,11.00
2023-04-01T06:30:34.156Z,10.90
2023-04-01T06:33:12.824Z,10.90
2023-04-01T06:35:48.236Z,10.90
2023-04-01T06:38:32.753Z,11.00
2023-04-01T06:41:13.609Z,10.90
2023-04-01T06:43:47.706Z,10.90
2023-04-01T06:46:23.357Z,10.90
2023-04-01T06:49:07.663Z,10.90
2023-04-01T06:51:41.935Z,10.90
2023-04-01T06:54:14.390Z,10.90
2023-04-01T06:56:48.138Z,10.90
2023-04-01T06:59:19.087Z,10.80
2023-04-01T07:01:51.027Z,10.90
2023-04-01T07:04:22.853Z,10.80
2023-04-01T07:06:54.404Z,10.90
2023-04-01T07:09:26.165Z,10.90
2023-04-01T07:12:00.882Z,10.90
2023-04-01T07:14:32.836Z,10.90
2023-04-01T07:17:04.347Z,10.90
2023-04-01T07:19:36.881Z,10.90
2023-04-01T07:22:08.359Z,10.90
2023-04-01T07:24:39.845Z,10.90
2023-04-01T07:27:13.230Z,10.90
2023-04-01T07:29:43.132Z,10.90
2023-04-01T07:32:23.428Z,11.00
2023-04-01T07:34:58.817Z,11.00
2023-04-01T07:37:32.421Z,11.10
2023-04-01T07:40:06.240Z,11.20
2023-04-01T07:42:41.546Z,11.20
2023-04-01T07:45:15.702Z,11.30
2023-04-01T07:47:49.644Z,11.30
2023-04-01T07:50:25.194Z,11.40
2023-04-01T07:52:59.314Z,11.40
2023-04-01T07:55:31.816Z,11.50
2023-04-01T07:58:07.758Z,11.50
2023-04-01T08:00:41.397Z,11.40
2023-04-01T08:03:21.326Z,11.40
2023-04-01T08:05:55.110Z,11.40
2023-04-01T08:08:31.594Z,11.40
2023-04-01T08:11:04.252Z,11.30
2023-04-01T08:13:40.915Z,11.30
2023-04-01T08:16:15.002Z,11.30
2023-04-01T08:18:50.336Z,11.30
2023-04-01T08:21:22.827Z,11.30
2023-04-01T08:23:53.520Z,11.30
2023-04-01T08:26:27.436Z,11.30
2023-04-01T08:29:04.086Z,11.30
2023-04-01T08:31:35.509Z,11.40
2023-04-01T08:34:07.045Z,11.40
2023-04-01T08:36:37.856Z,11.40
2023-04-01T08:39:11.733Z,11.40
2023-04-01T08:41:50.921Z,11.40
2023-04-01T08:44:36.674Z,11.40
2023-04-01T08:47:21.104Z,11.50
2023-04-01T08:50:00.467Z,11.40
2023-04-01T08:52:35.792Z,11.50
2023-04-01T08:55:18.385Z,11.50
2023-04-01T08:57:53.989Z,11.50
2023-04-01T09:00:29.689Z,11.50
2023-04-01T09:03:14.222Z,11.50
2023-04-01T09:05:51.699Z,11.50
2023-04-01T09:08:29.627Z,11.50
2023-04-01T09:11:10.006Z,11.60
2023-04-01T09:14:03.776Z,11.60
2023-04-01T09:16:51.084Z,11.60
2023-04-01T09:19:30.336Z,11.60
2023-04-01T09:22:14.093Z,11.70
2023-04-01T09:24:51.369Z,11.70
2023-04-01T09:27:29.739Z,11.70
2023-04-01T09:30:21.053Z,11.80
2023-04-01T09:32:59.653Z,11.80
2023-04-01T09:35:36.173Z,11.80
2023-04-01T09:38:18.114Z,11.90
2023-04-01T09:40:51.859Z,11.80
2023-04-01T09:43:29.579Z,11.80
2023-04-01T09:46:15.278Z,11.90
2023-04-01T09:48:59.972Z,12.00
2023-04-01T09:51:35.064Z,12.10
2023-04-01T09:54:11.937Z,12.20
2023-04-01T09:56:59.237Z,12.30
2023-04-01T09:59:42.924Z,12.30
2023-04-01T10:02:24.265Z,12.40
2023-04-01T10:05:21.147Z,12.40
2023-04-01T10:08:06.611Z,12.40
2023-04-01T10:10:50.779Z,12.40
2023-04-01T10:13:34.357Z,12.50
2023-04-01T10:16:14.331Z,12.50
2023-04-01T10:19:04.433Z,12.60
2023-04-01T10:21:50.828Z,12.60
2023-04-01T10:24:33.932Z,12.60
2023-04-01T10:27:15.157Z,12.60
2023-04-01T10:29:56.035Z,12.60
2023-04-01T10:32:41.847Z,12.60
2023-04-01T10:35:24.358Z,12.60
2023-04-01T10:38:13.104Z,12.70
2023-04-01T10:40:54.113Z,12.60
2023-04-01T10:43:35.996Z,12.60
2023-04-01T10:46:15.612Z,12.60
2023-04-01T10:48:59.507Z,12.70
2023-04-01T10:51:46.718Z,12.80
2023-04-01T10:54:21.657Z,12.80
2023-04-01T10:56:57.558Z,12.80
2023-04-01T10:59:49.280Z,12.90
2023-04-01T11:02:33.897Z,13.10
2023-04-01T11:05:20.752Z,13.10
2023-04-01T11:08:07.136Z,13.20
2023-04-01T11:10:58.191Z,13.20
2023-04-01T11:13:42.607Z,13.30
2023-04-01T11:16:28.029Z,13.20
2023-04-01T11:19:14.560Z,13.20
2023-04-01T11:21:50.355Z,13.30
2023-04-01T11:24:29.325Z,13.20
2023-04-01T11:27:09.167Z,13.20
2023-04-01T11:29:59.224Z,13.20
2023-04-01T11:32:37.720Z,13.20
2023-04-01T11:35:23.456Z,13.10
2023-04-01T11:37:57.541Z,13.20
2023-04-01T11:40:32.314Z,13.20
2023-04-01T11:43:05.116Z,13.10
2023-04-01T11:45:39.265Z,13.20
2023-04-01T11:48:15.765Z,13.10
2023-04-01T11:50:56.466Z,13.10
2023-04-01T11:53:40.237Z,13.20
2023-04-01T11:56:17.681Z,13.20
2023-04-01T11:59:02.091Z,13.20
2023-04-01T12:01:38.892Z,13.20
2023-04-01T12:04:23.611Z,13.20
2023-04-01T12:06:57.638Z,13.20
2023-04-01T12:09:31.758Z,13.20
2023-04-01T12:12:07.045Z,13.20
2023-04-01T12:14:40.448Z,13.20
2023-04-01T12:17:13.287Z,13.20
2023-04-01T12:19:47.367Z,13.20
2023-04-01T12:22:27.426Z,13.20
2023-04-01T12:25:00.190Z,13.20
2023-04-01T12:27:41.986Z,13.20
2023-04-01T12:30:21.092Z,13.20
2023-04-01T12:32:54.026Z,13.20
